CheckWX is a tool to help pilots better visualize weather data.  It is not intended as a substitute for an official pre-flight weather briefing.

02:54:12 UTC

KHUM METAR
Houma-Terrebonne Airport
Houma, Louisiana, USA
Current

19 mins ago

KHUM 240235Z AUTO 10004KT 7SM CLR 14/10 A3020 RMK AO2 T01400099
Observed
Mar-24 @ 02:35 UTC
Wind
  • 100° at 4 KTS
Visibility
7 SM
Flight Rules
VFR
Cloud Levels
  • Clear skies
Temperature
14°C / 57°F
Dewpoint
10°C / 50°F
Humidity
77%
Altimeter
30.2" Hg
Pressure
1022.72 hPa
Previous

39 mins ago

KHUM 240215Z AUTO 00000KT 10SM CLR 14/10 A3020 RMK AO2 T01390100
Observed
Mar-24 @ 02:15 UTC
Visibility
10 SM
Flight Rules
VFR
Cloud Levels
  • Clear skies
Temperature
14°C / 57°F
Dewpoint
10°C / 50°F
Humidity
77%
Altimeter
30.2" Hg
Pressure
1022.72 hPa
Previous

59 mins ago

KHUM 240155Z AUTO 00000KT 7SM CLR 14/10 A3020 RMK AO2 T01380100
Observed
Mar-24 @ 01:55 UTC
Visibility
7 SM
Flight Rules
VFR
Cloud Levels
  • Clear skies
Temperature
14°C / 57°F
Dewpoint
10°C / 50°F
Humidity
77%
Altimeter
30.2" Hg
Pressure
1022.72 hPa